createdAt,value
2022-11-08T00:04:48.389Z,2.80
2022-11-08T00:11:08.758Z,2.53
2022-11-08T00:17:10.696Z,2.60
2022-11-08T00:23:12.510Z,2.85
2022-11-08T00:29:14.353Z,2.75
2022-11-08T00:35:16.434Z,2.80
2022-11-08T00:41:18.272Z,2.95
2022-11-08T00:47:20.130Z,2.90
2022-11-08T00:53:45.479Z,2.55
2022-11-08T01:07:33.484Z,2.50
2022-11-08T01:13:35.626Z,2.53
2022-11-08T01:19:37.550Z,2.63
2022-11-08T01:25:41.876Z,2.92
2022-11-08T01:31:43.735Z,2.72
2022-11-08T01:37:45.535Z,3.40
2022-11-08T01:43:58.712Z,2.60
2022-11-08T01:50:19.057Z,2.22
2022-11-08T01:56:21.768Z,2.70
2022-11-08T02:02:23.939Z,2.22
2022-11-08T02:08:41.783Z,2.35
2022-11-08T02:14:43.685Z,2.53
2022-11-08T02:21:09.199Z,2.05
2022-11-08T02:27:12.496Z,2.33
2022-11-08T02:33:22.978Z,2.30
2022-11-08T02:39:25.600Z,2.42
2022-11-08T02:45:27.570Z,2.75
2022-11-08T02:51:29.584Z,2.40
2022-11-08T02:57:32.896Z,2.47
2022-11-08T03:03:35.441Z,2.63
2022-11-08T03:09:37.750Z,2.42
2022-11-08T03:15:39.838Z,2.42
2022-11-08T03:21:41.822Z,3.05
2022-11-08T03:27:43.771Z,3.10
2022-11-08T03:33:45.624Z,3.60
2022-11-08T03:39:47.445Z,2.90
2022-11-08T03:45:49.356Z,3.50
2022-11-08T03:51:51.309Z,3.65
2022-11-08T03:57:53.864Z,3.40
2022-11-08T04:03:56.500Z,3.22
2022-11-08T04:09:58.379Z,3.30
2022-11-08T04:16:00.330Z,3.65
2022-11-08T04:22:02.518Z,3.80
2022-11-08T04:28:04.532Z,4.13
2022-11-08T04:34:07.137Z,3.92
2022-11-08T04:40:10.099Z,4.22
2022-11-08T04:46:17.516Z,3.45
2022-11-08T04:52:19.401Z,3.80
2022-11-08T04:58:21.371Z,3.75
2022-11-08T05:04:23.186Z,3.53
2022-11-08T05:10:25.355Z,4.07
2022-11-08T05:16:30.745Z,4.07
2022-11-08T05:22:51.113Z,4.32
2022-11-08T05:28:53.012Z,3.90
2022-11-08T05:34:54.871Z,4.18
2022-11-08T05:41:08.963Z,4.15
2022-11-08T05:47:10.823Z,4.47
2022-11-08T05:53:12.892Z,4.40
2022-11-08T05:59:14.829Z,4.43
2022-11-08T06:05:16.815Z,4.28
2022-11-08T06:11:26.889Z,4.53
2022-11-08T06:17:30.178Z,4.90
2022-11-08T06:23:33.326Z,4.85
2022-11-08T06:29:35.185Z,3.88
2022-11-08T06:35:37.524Z,5.00
2022-11-08T06:41:39.391Z,4.40
2022-11-08T06:47:41.395Z,5.00
2022-11-08T06:53:43.765Z,5.72
2022-11-08T06:59:45.612Z,5.50
2022-11-08T07:05:47.492Z,4.55
2022-11-08T07:11:49.429Z,4.55
2022-11-08T07:17:51.434Z,4.00
2022-11-08T07:23:53.327Z,4.57
2022-11-08T07:29:55.187Z,4.38
2022-11-08T07:35:57.359Z,4.45
2022-11-08T07:41:59.327Z,3.95
2022-11-08T07:48:11.032Z,3.53
2022-11-08T07:54:14.025Z,3.35
2022-11-08T08:00:16.480Z,3.35
2022-11-08T08:06:18.324Z,2.95
2022-11-08T08:12:20.230Z,3.08
2022-11-08T08:18:22.106Z,3.45
2022-11-08T08:24:24.035Z,3.53
2022-11-08T08:30:26.356Z,2.92
2022-11-08T08:36:28.366Z,2.78
2022-11-08T08:42:30.209Z,2.45
2022-11-08T08:48:33.294Z,2.60
2022-11-08T08:54:35.198Z,2.30
2022-11-08T09:06:59.558Z,2.65
2022-11-08T09:13:02.606Z,2.38
2022-11-08T09:19:04.484Z,2.38
2022-11-08T09:25:06.791Z,2.25
2022-11-08T09:31:10.925Z,2.10
2022-11-08T09:37:12.996Z,2.20
2022-11-08T09:43:15.026Z,2.42
2022-11-08T09:49:40.795Z,2.47
2022-11-08T09:55:51.409Z,2.25
2022-11-08T10:01:53.278Z,2.13
2022-11-08T10:08:17.019Z,2.03
2022-11-08T10:14:53.535Z,2.17
2022-11-08T10:21:26.258Z,2.10
2022-11-08T10:28:09.737Z,1.88
2022-11-08T10:34:16.819Z,2.17
2022-11-08T10:40:29.592Z,1.73
2022-11-08T10:46:48.449Z,1.65
2022-11-08T10:53:03.661Z,1.55
2022-11-08T10:59:08.788Z,1.23
2022-11-08T11:05:17.964Z,1.30
2022-11-08T11:11:24.189Z,1.50
2022-11-08T11:17:37.116Z,1.45
2022-11-08T11:23:53.145Z,1.52
2022-11-08T11:30:25.674Z,1.42
2022-11-08T11:36:31.274Z,1.20
2022-11-08T11:42:47.102Z,1.38
2022-11-08T11:49:04.538Z,1.30
2022-11-08T11:55:07.017Z,1.10
2022-11-08T12:01:24.810Z,1.23
2022-11-08T12:07:29.749Z,1.33
2022-11-08T12:14:02.519Z,1.10
2022-11-08T12:20:10.145Z,1.30
2022-11-08T12:26:55.892Z,1.08
2022-11-08T12:33:18.997Z,1.17
2022-11-08T12:39:34.812Z,1.10
2022-11-08T12:45:49.336Z,1.20
2022-11-08T12:52:09.297Z,1.10
2022-11-08T12:58:37.337Z,1.10
2022-11-08T13:04:40.761Z,1.20
2022-11-08T13:10:58.005Z,1.00
2022-11-08T13:17:08.773Z,1.25
2022-11-08T13:23:33.047Z,1.20
2022-11-08T13:29:35.119Z,1.20
2022-11-08T13:36:01.976Z,1.00
2022-11-08T13:42:15.747Z,1.15
2022-11-08T13:48:22.173Z,1.00
2022-11-08T13:54:24.203Z,1.30
2022-11-08T14:00:41.435Z,1.30
2022-11-08T14:06:59.781Z,1.02
2022-11-08T14:13:11.668Z,1.20
2022-11-08T14:19:24.035Z,1.00
2022-11-08T14:25:30.067Z,1.20
2022-11-08T14:31:34.339Z,1.15
2022-11-08T14:37:37.351Z,1.13
2022-11-08T14:43:47.606Z,1.00
2022-11-08T14:49:49.631Z,1.10
2022-11-08T14:56:02.031Z,1.40
2022-11-08T15:02:04.016Z,1.02
2022-11-08T15:08:15.933Z,1.20
2022-11-08T15:14:20.570Z,1.05
2022-11-08T15:20:22.638Z,1.17
2022-11-08T15:26:32.955Z,1.05
2022-11-08T15:32:39.528Z,0.82
2022-11-08T15:38:43.376Z,1.20
2022-11-08T15:45:02.205Z,1.35
2022-11-08T15:51:05.114Z,1.20
2022-11-08T15:57:08.051Z,1.10
2022-11-08T16:03:10.815Z,1.40
2022-11-08T16:09:13.026Z,1.00
2022-11-08T16:15:17.759Z,0.98
2022-11-08T16:21:19.530Z,1.20
2022-11-08T16:27:21.439Z,1.30
2022-11-08T16:33:27.039Z,1.20
2022-11-08T16:39:29.270Z,1.25
2022-11-08T16:46:03.284Z,1.10
2022-11-08T16:52:03.485Z,1.33
2022-11-08T16:58:05.627Z,1.48
2022-11-08T17:04:07.440Z,1.30
2022-11-08T17:10:26.906Z,1.50
2022-11-08T17:16:29.078Z,1.50
2022-11-08T17:22:30.907Z,1.35
2022-11-08T17:28:33.306Z,1.30
2022-11-08T17:34:35.194Z,1.30
2022-11-08T17:40:37.042Z,1.27
2022-11-08T17:46:38.966Z,1.63
2022-11-08T17:52:40.921Z,1.30
2022-11-08T17:58:42.772Z,1.17
2022-11-08T18:04:44.599Z,1.35
2022-11-08T18:10:47.325Z,1.58
2022-11-08T18:16:49.543Z,1.60
2022-11-08T18:22:51.439Z,1.33
2022-11-08T18:28:53.726Z,1.52
2022-11-08T18:34:55.548Z,1.70
2022-11-08T18:40:57.466Z,1.70
2022-11-08T18:46:59.397Z,1.80
2022-11-08T18:53:05.286Z,1.77
2022-11-08T18:59:07.302Z,1.60
2022-11-08T19:05:09.472Z,1.83
2022-11-08T19:11:12.103Z,1.60
2022-11-08T19:17:16.224Z,1.70
2022-11-08T19:23:20.729Z,1.77
2022-11-08T19:29:22.805Z,1.83
2022-11-08T19:35:24.745Z,1.70
2022-11-08T19:41:28.532Z,1.58
2022-11-08T19:47:30.380Z,2.30
2022-11-08T19:53:32.677Z,2.13
2022-11-08T19:59:34.585Z,1.90
2022-11-08T20:05:36.398Z,1.73
2022-11-08T20:11:40.692Z,1.80
2022-11-08T20:17:42.707Z,1.92
2022-11-08T20:23:45.266Z,2.00
2022-11-08T20:29:47.517Z,1.95
2022-11-08T20:35:49.374Z,1.58
2022-11-08T20:41:51.253Z,2.10
2022-11-08T20:47:53.167Z,2.00
2022-11-08T20:53:56.540Z,2.00
2022-11-08T21:00:06.987Z,1.65
2022-11-08T21:06:17.048Z,2.00
2022-11-08T21:12:18.956Z,1.73
2022-11-08T21:18:21.571Z,1.42
2022-11-08T21:24:23.961Z,1.70
2022-11-08T21:30:26.725Z,2.00
2022-11-08T21:36:29.263Z,1.52
2022-11-08T21:42:35.298Z,1.67
2022-11-08T21:48:39.906Z,2.05
2022-11-08T21:54:42.232Z,1.70
2022-11-08T22:00:50.521Z,1.83
2022-11-08T22:06:52.481Z,1.85
2022-11-08T22:12:54.442Z,2.00
2022-11-08T22:19:05.774Z,1.90
2022-11-08T22:25:08.417Z,1.73
2022-11-08T22:31:10.527Z,1.90
2022-11-08T22:37:12.540Z,1.80
2022-11-08T22:43:14.547Z,1.67
2022-11-08T22:49:16.773Z,1.88
2022-11-08T22:55:18.644Z,1.73
2022-11-08T23:01:20.514Z,1.65
2022-11-08T23:07:22.321Z,1.65
2022-11-08T23:13:42.659Z,1.60
2022-11-08T23:20:03.175Z,1.60
2022-11-08T23:26:05.020Z,1.65
2022-11-08T23:32:07.153Z,1.77
2022-11-08T23:38:09.084Z,1.70
2022-11-08T23:44:26.786Z,1.50
2022-11-08T23:50:28.822Z,1.75
2022-11-08T23:56:30.667Z,1.63
